Time;durP1;ratioP1;P1;durP2;ratioP2;P2;SDS_P1;SDS_P2;PMS_P1;PMS_P2;Temp;Humidity;BMP_temperature;BMP_pressure;BME280_temperature;BME280_humidity;BME280_pressure;Samples;Min_cycle;Max_cycle;Signal;HPM_P1;HPM_P2
2022/07/09 00:00:22;;;;;;;12.32;5.95;;;;;;;;;;5052272;28;20049;-76
2022/07/09 00:02:48;;;;;;;13.40;6.53;;;;;;;;;;5053667;28;20756;-76
2022/07/09 00:05:14;;;;;;;15.85;6.07;;;;;;;;;;5034910;28;20044;-76
2022/07/09 00:07:40;;;;;;;11.65;6.07;;;;;;;;;;5049808;28;20041;-76
2022/07/09 00:10:07;;;;;;;15.32;7.00;;;;;;;;;;5040081;28;20049;-76
2022/07/09 00:12:33;;;;;;;12.77;5.95;;;;;;;;;;5033901;28;20045;-76
2022/07/09 00:14:59;;;;;;;13.27;6.07;;;;;;;;;;5053142;28;20041;-76
2022/07/09 00:17:29;;;;;;;11.65;5.72;;;;;;;;;;5051091;28;20041;-76
2022/07/09 00:19:56;;;;;;;15.90;6.43;;;;;;;;;;5049366;28;20049;-76
2022/07/09 00:22:22;;;;;;;13.60;6.60;;;;;;;;;;5050913;28;20439;-76
2022/07/09 00:24:48;;;;;;;15.05;7.68;;;;;;;;;;5052033;28;20128;-76
2022/07/09 00:27:14;;;;;;;15.20;7.10;;;;;;;;;;5050828;28;20120;-76
2022/07/09 00:29:40;;;;;;;14.98;6.63;;;;;;;;;;5049683;28;20136;-77
2022/07/09 00:32:07;;;;;;;16.25;7.15;;;;;;;;;;5031062;28;20084;-77
2022/07/09 00:34:33;;;;;;;18.08;7.60;;;;;;;;;;5051139;28;20041;-75
2022/07/09 00:37:00;;;;;;;13.80;7.13;;;;;;;;;;5033421;28;20127;-75
2022/07/09 00:39:26;;;;;;;14.95;6.80;;;;;;;;;;5033045;28;20102;-76
2022/07/09 00:42:02;;;;;;;19.25;8.32;;;;;;;;;;5049021;28;20098;-75
2022/07/09 00:44:28;;;;;;;15.88;7.45;;;;;;;;;;5037066;28;20052;-76
2022/07/09 00:46:54;;;;;;;17.23;7.03;;;;;;;;;;5041361;28;20049;-76
2022/07/09 00:49:20;;;;;;;14.85;7.45;;;;;;;;;;5051008;28;20045;-77
2022/07/09 00:51:46;;;;;;;16.50;7.57;;;;;;;;;;5049709;28;20041;-76
2022/07/09 00:54:12;;;;;;;13.15;7.03;;;;;;;;;;5048908;28;20487;-77
2022/07/09 00:56:38;;;;;;;14.40;6.78;;;;;;;;;;5051139;28;20044;-76
2022/07/09 00:59:09;;;;;;;14.23;7.28;;;;;;;;;;5033656;28;20045;-76
2022/07/09 01:01:35;;;;;;;15.52;8.00;;;;;;;;;;5047541;28;20041;-76
2022/07/09 01:04:02;;;;;;;12.73;6.97;;;;;;;;;;5049255;28;20055;-76
2022/07/09 01:06:28;;;;;;;18.33;7.97;;;;;;;;;;5049475;28;20041;-76
2022/07/09 01:08:54;;;;;;;13.15;6.50;;;;;;;;;;5048288;28;20038;-76
2022/07/09 01:11:20;;;;;;;21.50;7.43;;;;;;;;;;5048783;28;20037;-76
2022/07/09 01:13:46;;;;;;;15.63;7.20;;;;;;;;;;5049526;28;20482;-76
2022/07/09 01:16:13;;;;;;;14.50;7.45;;;;;;;;;;5054012;28;20171;-76
2022/07/09 01:18:39;;;;;;;12.82;7.32;;;;;;;;;;5053423;28;20398;-77
2022/07/09 01:21:05;;;;;;;14.23;7.18;;;;;;;;;;5055109;28;20118;-76
2022/07/09 01:23:31;;;;;;;16.95;8.10;;;;;;;;;;5054667;28;20120;-76
2022/07/09 01:25:58;;;;;;;17.25;8.20;;;;;;;;;;5037287;28;20164;-75
2022/07/09 01:28:24;;;;;;;12.98;6.97;;;;;;;;;;5037959;28;20049;-76
2022/07/09 01:30:50;;;;;;;14.13;6.95;;;;;;;;;;5054829;28;20449;-76
2022/07/09 01:33:16;;;;;;;16.13;7.57;;;;;;;;;;5054815;28;20049;-76
2022/07/09 01:35:42;;;;;;;16.00;7.60;;;;;;;;;;5055222;28;20037;-76
2022/07/09 01:38:08;;;;;;;15.48;7.13;;;;;;;;;;5054351;28;20479;-76
2022/07/09 01:40:34;;;;;;;15.73;7.60;;;;;;;;;;5052656;28;20049;-76
2022/07/09 01:43:00;;;;;;;17.92;7.88;;;;;;;;;;5037163;28;20043;-76
2022/07/09 01:45:26;;;;;;;13.10;7.47;;;;;;;;;;5054283;28;20068;-76
2022/07/09 01:47:52;;;;;;;18.98;8.30;;;;;;;;;;5054313;28;20080;-76
2022/07/09 01:50:18;;;;;;;18.88;7.78;;;;;;;;;;5054632;28;20094;-76
2022/07/09 01:52:44;;;;;;;16.55;7.70;;;;;;;;;;5053623;28;20037;-76
2022/07/09 01:55:10;;;;;;;15.73;7.93;;;;;;;;;;5053215;28;20041;-76
2022/07/09 01:57:36;;;;;;;13.65;7.30;;;;;;;;;;5054617;28;20048;-76
2022/07/09 02:00:04;;;;;;;16.90;7.88;;;;;;;;;;5049890;28;20041;-76
2022/07/09 02:02:29;;;;;;;17.50;7.50;;;;;;;;;;5046662;28;20044;-76
2022/07/09 02:04:56;;;;;;;16.00;8.20;;;;;;;;;;5049678;28;20036;-76
2022/07/09 02:07:21;;;;;;;13.82;7.28;;;;;;;;;;5048238;28;20041;-76
2022/07/09 02:09:49;;;;;;;18.08;8.00;;;;;;;;;;5050272;28;20530;-76
2022/07/09 02:12:15;;;;;;;15.95;7.75;;;;;;;;;;5049847;28;20492;-76
2022/07/09 02:14:41;;;;;;;13.82;7.78;;;;;;;;;;5052638;28;20088;-76
2022/07/09 02:17:07;;;;;;;18.65;7.85;;;;;;;;;;5050969;28;20037;-76
2022/07/09 02:19:33;;;;;;;15.52;7.57;;;;;;;;;;5049154;28;20055;-76
2022/07/09 02:21:59;;;;;;;17.50;8.50;;;;;;;;;;5049801;28;20045;-76
2022/07/09 02:24:25;;;;;;;15.27;7.93;;;;;;;;;;5051576;28;20514;-76
2022/07/09 02:26:51;;;;;;;17.85;8.68;;;;;;;;;;5048273;28;20045;-76
2022/07/09 02:29:17;;;;;;;18.65;8.63;;;;;;;;;;5049013;28;20048;-75
2022/07/09 02:31:43;;;;;;;16.85;8.55;;;;;;;;;;5048606;28;20522;-77
2022/07/09 02:34:09;;;;;;;15.90;8.68;;;;;;;;;;5051540;28;20044;-77
2022/07/09 02:36:35;;;;;;;17.70;8.98;;;;;;;;;;5031633;28;20403;-76
2022/07/09 02:39:01;;;;;;;19.25;9.70;;;;;;;;;;5050456;28;20048;-77
2022/07/09 02:41:27;;;;;;;18.08;9.25;;;;;;;;;;5047616;28;20537;-76
2022/07/09 02:43:53;;;;;;;22.45;8.88;;;;;;;;;;5046276;28;20041;-75
2022/07/09 02:46:19;;;;;;;18.58;8.52;;;;;;;;;;5046995;28;20045;-76
2022/07/09 02:48:45;;;;;;;15.75;8.63;;;;;;;;;;5043821;28;20049;-75
2022/07/09 02:51:11;;;;;;;19.58;9.10;;;;;;;;;;5050593;28;20041;-75
2022/07/09 02:53:37;;;;;;;18.60;8.93;;;;;;;;;;5049595;28;21054;-76
2022/07/09 02:56:03;;;;;;;20.27;9.93;;;;;;;;;;5048673;28;20471;-76
2022/07/09 02:58:29;;;;;;;19.40;9.63;;;;;;;;;;5050199;28;20051;-76
2022/07/09 03:00:55;;;;;;;17.65;9.40;;;;;;;;;;5043564;28;20475;-75
2022/07/09 03:03:23;;;;;;;19.45;10.02;;;;;;;;;;5050638;28;20136;-76
2022/07/09 03:05:49;;;;;;;20.90;10.80;;;;;;;;;;5049101;28;20053;-76
2022/07/09 03:08:16;;;;;;;14.80;9.32;;;;;;;;;;5016911;28;20051;-76
2022/07/09 03:10:42;;;;;;;17.05;10.10;;;;;;;;;;5048765;28;20071;-75
2022/07/09 03:13:08;;;;;;;16.48;10.23;;;;;;;;;;5031894;28;20144;-76
2022/07/09 03:15:34;;;;;;;18.70;10.52;;;;;;;;;;5049719;28;20562;-76
2022/07/09 03:18:00;;;;;;;21.08;10.45;;;;;;;;;;5050489;28;20492;-76
2022/07/09 03:20:26;;;;;;;15.70;10.10;;;;;;;;;;5047835;28;20048;-76
2022/07/09 03:22:52;;;;;;;16.88;10.43;;;;;;;;;;5035877;28;20056;-75
2022/07/09 03:25:18;;;;;;;15.80;10.00;;;;;;;;;;5053028;28;20562;-75
2022/07/09 03:27:44;;;;;;;19.15;10.23;;;;;;;;;;5050616;28;20041;-76
2022/07/09 03:30:10;;;;;;;14.80;9.38;;;;;;;;;;5044514;28;20084;-76
2022/07/09 03:32:36;;;;;;;20.98;10.85;;;;;;;;;;5018258;28;20076;-75
2022/07/09 03:35:03;;;;;;;17.70;10.75;;;;;;;;;;5053085;28;20753;-76
2022/07/09 03:37:29;;;;;;;20.92;10.57;;;;;;;;;;5032027;28;20044;-76
2022/07/09 03:39:55;;;;;;;19.38;10.05;;;;;;;;;;5044470;28;20040;-76
2022/07/09 03:42:21;;;;;;;20.38;10.50;;;;;;;;;;5049679;28;20041;-76
2022/07/09 03:44:47;;;;;;;18.60;10.43;;;;;;;;;;5051420;28;20102;-76
2022/07/09 03:47:13;;;;;;;18.73;10.85;;;;;;;;;;5047100;28;20443;-76
2022/07/09 03:49:38;;;;;;;15.35;10.30;;;;;;;;;;5049627;28;20086;-76
2022/07/09 03:52:05;;;;;;;17.75;10.38;;;;;;;;;;5047888;28;20128;-76
2022/07/09 03:54:31;;;;;;;17.27;9.82;;;;;;;;;;5030291;28;20403;-77
2022/07/09 03:56:57;;;;;;;18.50;9.80;;;;;;;;;;5044922;28;20040;-77
2022/07/09 03:59:23;;;;;;;17.10;8.95;;;;;;;;;;5048085;28;20045;-77
2022/07/09 04:01:49;;;;;;;19.45;9.45;;;;;;;;;;5046592;28;20056;-76
2022/07/09 04:04:15;;;;;;;15.40;8.57;;;;;;;;;;5029775;28;20052;-76
2022/07/09 04:06:41;;;;;;;13.80;8.25;;;;;;;;;;5046281;28;20041;-76
2022/07/09 04:09:07;;;;;;;20.63;9.15;;;;;;;;;;5027568;28;20037;-77
2022/07/09 04:11:33;;;;;;;17.30;8.75;;;;;;;;;;5049183;28;20033;-77
2022/07/09 04:14:00;;;;;;;13.50;7.97;;;;;;;;;;5047614;28;20045;-77
2022/07/09 04:16:27;;;;;;;14.63;8.15;;;;;;;;;;5049211;28;20105;-76
2022/07/09 04:18:53;;;;;;;17.33;8.57;;;;;;;;;;5031478;28;20487;-76
2022/07/09 04:21:21;;;;;;;19.73;8.50;;;;;;;;;;5043409;28;20080;-76
2022/07/09 04:23:48;;;;;;;17.50;8.30;;;;;;;;;;5030728;28;20580;-75
2022/07/09 04:26:14;;;;;;;16.27;7.60;;;;;;;;;;5050190;28;20041;-77
2022/07/09 04:28:40;;;;;;;19.40;7.65;;;;;;;;;;5049168;28;20041;-77
2022/07/09 04:31:06;;;;;;;11.35;7.15;;;;;;;;;;5045482;28;20055;-77
2022/07/09 04:33:32;;;;;;;14.18;7.45;;;;;;;;;;5049255;28;20037;-76
2022/07/09 04:35:58;;;;;;;13.52;8.05;;;;;;;;;;5048022;28;20052;-76
2022/07/09 04:38:24;;;;;;;15.48;7.15;;;;;;;;;;5046572;28;20041;-76
2022/07/09 04:40:51;;;;;;;13.27;7.18;;;;;;;;;;5049276;28;20086;-74
2022/07/09 04:43:17;;;;;;;11.55;6.70;;;;;;;;;;5026159;28;20106;-76
2022/07/09 04:45:43;;;;;;;15.68;7.50;;;;;;;;;;5046180;28;20144;-76
2022/07/09 04:48:09;;;;;;;14.93;7.40;;;;;;;;;;5028464;28;20499;-76
2022/07/09 04:50:35;;;;;;;13.75;7.20;;;;;;;;;;5031180;28;20044;-76
2022/07/09 04:53:01;;;;;;;13.50;6.75;;;;;;;;;;5052400;28;20048;-78
2022/07/09 04:55:27;;;;;;;14.60;7.68;;;;;;;;;;5049550;28;20049;-76
2022/07/09 04:57:53;;;;;;;18.33;7.70;;;;;;;;;;5030953;28;20502;-76
2022/07/09 05:00:19;;;;;;;14.32;7.57;;;;;;;;;;5053158;28;20044;-76
2022/07/09 05:02:46;;;;;;;14.85;7.50;;;;;;;;;;5035095;28;20134;-77
2022/07/09 05:05:13;;;;;;;14.25;7.07;;;;;;;;;;5050677;28;20190;-76
2022/07/09 05:07:39;;;;;;;14.95;7.00;;;;;;;;;;5055256;28;20052;-76
2022/07/09 05:10:05;;;;;;;12.45;7.13;;;;;;;;;;5055393;28;20049;-76
2022/07/09 05:12:31;;;;;;;10.63;7.32;;;;;;;;;;5053386;28;20048;-76
2022/07/09 05:14:57;;;;;;;12.38;7.07;;;;;;;;;;5053794;28;20045;-76
2022/07/09 05:17:24;;;;;;;16.42;7.40;;;;;;;;;;5053023;28;20067;-77
2022/07/09 05:19:50;;;;;;;12.68;7.00;;;;;;;;;;5053711;28;20457;-77
2022/07/09 05:22:16;;;;;;;11.70;7.32;;;;;;;;;;5052839;28;20377;-77
2022/07/09 05:24:43;;;;;;;14.40;7.82;;;;;;;;;;5049809;28;20052;-76
2022/07/09 05:27:09;;;;;;;13.00;7.43;;;;;;;;;;5050467;28;20041;-76
2022/07/09 05:29:38;;;;;;;12.50;6.60;;;;;;;;;;5055031;28;20564;-77
2022/07/09 05:32:04;;;;;;;12.48;7.60;;;;;;;;;;5055738;28;20045;-77
2022/07/09 05:34:30;;;;;;;11.50;6.85;;;;;;;;;;5055045;28;20044;-74
2022/07/09 05:36:57;;;;;;;15.57;7.32;;;;;;;;;;5052969;28;20091;-76
2022/07/09 05:39:23;;;;;;;13.55;7.55;;;;;;;;;;5055296;28;20048;-77
2022/07/09 05:41:49;;;;;;;14.07;7.22;;;;;;;;;;5055347;28;20044;-76
2022/07/09 05:44:15;;;;;;;13.30;7.82;;;;;;;;;;5054932;28;20041;-77
2022/07/09 05:46:42;;;;;;;12.93;7.80;;;;;;;;;;5052491;28;20048;-76
2022/07/09 05:49:08;;;;;;;13.68;6.88;;;;;;;;;;5057961;28;20132;-76
2022/07/09 05:51:34;;;;;;;11.60;7.25;;;;;;;;;;5052497;28;20048;-78
2022/07/09 05:54:00;;;;;;;14.50;6.88;;;;;;;;;;5053295;28;20049;-75
2022/07/09 05:56:26;;;;;;;10.70;6.10;;;;;;;;;;5053082;28;20045;-75
2022/07/09 05:58:52;;;;;;;11.50;6.25;;;;;;;;;;5053633;28;20040;-76
2022/07/09 06:01:18;;;;;;;12.57;6.15;;;;;;;;;;5051581;28;20136;-75
2022/07/09 06:03:44;;;;;;;13.38;6.00;;;;;;;;;;5055270;28;20048;-77
2022/07/09 06:06:11;;;;;;;11.05;6.45;;;;;;;;;;5060923;28;20060;-76
2022/07/09 06:08:37;;;;;;;10.90;5.80;;;;;;;;;;5062530;28;20129;-76
2022/07/09 06:11:03;;;;;;;11.30;5.97;;;;;;;;;;5060554;28;20048;-75
2022/07/09 06:13:29;;;;;;;11.35;5.78;;;;;;;;;;5061639;28;20116;-76
2022/07/09 06:15:55;;;;;;;10.50;5.70;;;;;;;;;;5060005;28;20056;-76
2022/07/09 06:18:24;;;;;;;14.15;5.47;;;;;;;;;;5055028;28;20041;-77
2022/07/09 06:20:50;;;;;;;9.73;5.60;;;;;;;;;;5037332;28;20490;-77
2022/07/09 06:23:16;;;;;;;10.60;5.97;;;;;;;;;;5066990;28;20047;-77
2022/07/09 06:25:42;;;;;;;11.18;5.40;;;;;;;;;;5044431;28;20053;-76
2022/07/09 06:28:08;;;;;;;11.20;5.00;;;;;;;;;;5057976;28;20135;-79
2022/07/09 06:30:35;;;;;;;10.60;5.45;;;;;;;;;;5057407;28;20045;-76
2022/07/09 06:33:01;;;;;;;9.68;5.38;;;;;;;;;;5039126;28;20049;-76
2022/07/09 06:35:27;;;;;;;10.13;4.57;;;;;;;;;;5053264;28;20052;-76
2022/07/09 06:37:53;;;;;;;8.15;4.50;;;;;;;;;;5053888;28;20479;-76
2022/07/09 06:40:19;;;;;;;10.77;4.97;;;;;;;;;;5054158;28;20041;-77
2022/07/09 06:42:45;;;;;;;10.00;4.55;;;;;;;;;;5054489;28;20048;-76
2022/07/09 06:45:11;;;;;;;10.57;4.80;;;;;;;;;;5054458;28;20415;-76
2022/07/09 06:47:37;;;;;;;11.43;4.72;;;;;;;;;;5050958;28;20446;-76
2022/07/09 06:50:04;;;;;;;9.80;4.75;;;;;;;;;;5043817;28;20042;-76
2022/07/09 06:52:30;;;;;;;8.68;4.22;;;;;;;;;;5044995;28;20045;-75
2022/07/09 06:54:56;;;;;;;9.35;4.43;;;;;;;;;;5052567;28;20442;-77
2022/07/09 06:57:22;;;;;;;10.15;4.50;;;;;;;;;;5035661;28;20041;-76
2022/07/09 06:59:48;;;;;;;8.45;4.32;;;;;;;;;;5053812;28;20095;-77
2022/07/09 07:02:17;;;;;;;8.48;3.92;;;;;;;;;;5054304;28;20045;-76
2022/07/09 07:04:43;;;;;;;10.02;4.43;;;;;;;;;;5052458;28;20037;-75
2022/07/09 07:07:09;;;;;;;7.93;3.83;;;;;;;;;;5049510;28;20041;-77
2022/07/09 07:09:35;;;;;;;8.63;4.00;;;;;;;;;;5053107;28;20156;-75
2022/07/09 07:12:01;;;;;;;11.90;4.40;;;;;;;;;;5053972;28;20088;-75
2022/07/09 07:14:27;;;;;;;10.93;4.32;;;;;;;;;;5052078;28;20033;-77
2022/07/09 07:16:54;;;;;;;8.43;3.83;;;;;;;;;;5051023;28;20053;-75
2022/07/09 07:19:21;;;;;;;9.82;3.83;;;;;;;;;;5016403;28;20063;-76
2022/07/09 07:21:47;;;;;;;11.68;3.47;;;;;;;;;;5053690;28;20060;-77
2022/07/09 07:24:13;;;;;;;9.68;3.80;;;;;;;;;;5053912;28;20056;-76
2022/07/09 07:26:39;;;;;;;8.15;4.25;;;;;;;;;;5035323;28;20045;-76
2022/07/09 07:29:05;;;;;;;7.15;4.10;;;;;;;;;;5052198;28;20484;-77
2022/07/09 07:31:31;;;;;;;8.05;4.13;;;;;;;;;;5053173;28;20099;-77
2022/07/09 07:33:59;;;;;;;10.30;3.92;;;;;;;;;;5053416;28;20407;-77
2022/07/09 07:36:25;;;;;;;8.38;3.90;;;;;;;;;;5053458;28;20087;-77
2022/07/09 07:38:51;;;;;;;8.18;3.83;;;;;;;;;;5034893;28;20045;-77
2022/07/09 07:41:18;;;;;;;8.07;3.33;;;;;;;;;;5053736;28;20118;-76
2022/07/09 07:43:44;;;;;;;7.53;3.67;;;;;;;;;;5053035;28;20049;-77
2022/07/09 07:46:10;;;;;;;7.63;3.47;;;;;;;;;;5019167;28;20502;-77
2022/07/09 07:48:36;;;;;;;8.95;3.53;;;;;;;;;;5051349;28;20479;-76
2022/07/09 07:51:03;;;;;;;8.00;3.13;;;;;;;;;;5049010;28;20116;-77
2022/07/09 07:53:32;;;;;;;8.60;3.10;;;;;;;;;;5033370;28;20393;-76
2022/07/09 07:56:00;;;;;;;8.77;3.25;;;;;;;;;;5033201;28;20045;-77
2022/07/09 07:58:26;;;;;;;8.68;3.53;;;;;;;;;;5047650;28;20051;-77
2022/07/09 08:00:53;;;;;;;8.50;3.30;;;;;;;;;;5053340;28;20044;-76
2022/07/09 08:03:19;;;;;;;6.60;2.67;;;;;;;;;;5034452;28;20119;-77
2022/07/09 08:05:46;;;;;;;7.60;2.60;;;;;;;;;;5052914;28;20045;-75
2022/07/09 08:08:12;;;;;;;7.90;2.60;;;;;;;;;;5051893;28;20052;-76
2022/07/09 08:10:38;;;;;;;8.02;2.40;;;;;;;;;;5035413;28;20053;-75
2022/07/09 08:13:04;;;;;;;8.32;2.30;;;;;;;;;;5052469;28;20049;-77
2022/07/09 08:15:30;;;;;;;9.50;2.40;;;;;;;;;;5035526;28;20376;-77
2022/07/09 08:17:56;;;;;;;5.63;1.95;;;;;;;;;;5050744;28;20131;-77
2022/07/09 08:20:22;;;;;;;5.88;2.30;;;;;;;;;;5051928;28;20554;-77
2022/07/09 08:22:49;;;;;;;6.70;2.10;;;;;;;;;;5052925;28;20045;-77
2022/07/09 08:25:15;;;;;;;7.55;2.22;;;;;;;;;;5034810;28;20136;-76
2022/07/09 08:27:41;;;;;;;7.07;2.50;;;;;;;;;;5033810;28;20045;-76
2022/07/09 08:30:07;;;;;;;6.05;2.15;;;;;;;;;;5051028;28;20044;-77
2022/07/09 08:32:33;;;;;;;6.90;2.08;;;;;;;;;;5051126;28;20131;-76
2022/07/09 08:34:59;;;;;;;8.35;2.13;;;;;;;;;;5052192;28;20057;-78
2022/07/09 08:37:25;;;;;;;7.40;2.00;;;;;;;;;;5051849;28;20548;-76
2022/07/09 08:39:51;;;;;;;8.98;2.30;;;;;;;;;;5052708;28;20052;-77
2022/07/09 08:42:17;;;;;;;7.55;2.05;;;;;;;;;;5052554;28;20059;-76
2022/07/09 08:44:46;;;;;;;6.60;2.13;;;;;;;;;;5052111;28;20053;-77
2022/07/09 08:47:12;;;;;;;6.15;2.10;;;;;;;;;;5050931;28;20411;-77
2022/07/09 08:49:38;;;;;;;10.55;1.80;;;;;;;;;;5052771;28;20488;-77
2022/07/09 08:52:06;;;;;;;5.18;1.83;;;;;;;;;;5032745;28;20041;-76
2022/07/09 08:54:33;;;;;;;10.75;2.17;;;;;;;;;;5052449;28;20052;-76
2022/07/09 08:57:00;;;;;;;7.80;1.85;;;;;;;;;;5050885;28;20045;-74
2022/07/09 08:59:26;;;;;;;6.47;1.70;;;;;;;;;;5038943;28;20088;-75
2022/07/09 09:01:52;;;;;;;6.38;1.70;;;;;;;;;;5038185;28;20044;-77
2022/07/09 09:04:19;;;;;;;5.40;1.67;;;;;;;;;;5052505;28;20376;-77
2022/07/09 09:06:45;;;;;;;6.60;1.55;;;;;;;;;;5051984;28;20044;-77
2022/07/09 09:09:18;;;;;;;4.10;1.20;;;;;;;;;;5052027;28;20406;-77
2022/07/09 09:11:47;;;;;;;4.45;1.33;;;;;;;;;;5051474;28;20139;-75
2022/07/09 09:14:18;;;;;;;5.32;1.45;;;;;;;;;;5052309;28;20057;-76
2022/07/09 09:16:44;;;;;;;4.95;1.20;;;;;;;;;;5052160;28;20458;-76
2022/07/09 09:19:10;;;;;;;5.97;1.38;;;;;;;;;;5050793;28;20136;-76
2022/07/09 09:21:37;;;;;;;7.20;1.33;;;;;;;;;;5051327;28;20080;-77
2022/07/09 09:24:03;;;;;;;4.45;1.40;;;;;;;;;;5051863;28;20044;-77
2022/07/09 09:26:29;;;;;;;3.90;1.30;;;;;;;;;;5034092;28;20487;-76
2022/07/09 09:28:56;;;;;;;7.47;1.50;;;;;;;;;;5051879;28;20049;-77
2022/07/09 09:31:26;;;;;;;3.38;1.33;;;;;;;;;;5051494;28;20041;-77
2022/07/09 09:33:55;;;;;;;5.90;1.48;;;;;;;;;;5034283;28;20130;-77
2022/07/09 09:36:34;;;;;;;5.35;1.38;;;;;;;;;;5051037;28;20119;-77
2022/07/09 09:39:09;;;;;;;4.72;1.40;;;;;;;;;;5038039;28;20463;-77
2022/07/09 09:41:35;;;;;;;5.20;1.10;;;;;;;;;;5055021;28;20446;-77
2022/07/09 09:44:05;;;;;;;4.10;1.02;;;;;;;;;;5037530;28;20045;-77
2022/07/09 09:46:35;;;;;;;6.70;1.40;;;;;;;;;;5055108;28;20049;-77
2022/07/09 09:49:05;;;;;;;4.20;1.20;;;;;;;;;;5037539;28;20057;-76
2022/07/09 09:51:33;;;;;;;6.17;1.30;;;;;;;;;;5037511;28;20099;-76
2022/07/09 09:54:00;;;;;;;9.68;1.40;;;;;;;;;;5055537;28;20049;-77
2022/07/09 09:56:26;;;;;;;4.78;1.40;;;;;;;;;;5036907;28;20049;-76
2022/07/09 09:58:53;;;;;;;4.03;1.10;;;;;;;;;;5037853;28;20045;-77
2022/07/09 10:01:19;;;;;;;4.85;1.10;;;;;;;;;;5054833;28;20048;-77
2022/07/09 10:03:46;;;;;;;7.45;1.50;;;;;;;;;;5037164;28;20041;-77
2022/07/09 10:06:12;;;;;;;5.97;1.15;;;;;;;;;;5053693;28;20499;-76
2022/07/09 10:08:38;;;;;;;8.13;1.50;;;;;;;;;;5056463;28;20131;-76
2022/07/09 10:11:05;;;;;;;6.10;1.30;;;;;;;;;;5055312;28;20083;-76
2022/07/09 10:13:31;;;;;;;7.32;1.30;;;;;;;;;;5052414;28;20100;-75
2022/07/09 10:15:59;;;;;;;5.68;1.23;;;;;;;;;;5052599;28;20450;-79
2022/07/09 10:18:25;;;;;;;9.85;1.50;;;;;;;;;;5049719;28;20396;-79
2022/07/09 10:20:56;;;;;;;7.57;1.50;;;;;;;;;;5051226;28;20087;-79
2022/07/09 10:23:23;;;;;;;4.35;1.38;;;;;;;;;;5049670;28;20051;-79
2022/07/09 10:25:52;;;;;;;17.63;8.90;;;;;;;;;;5054738;28;20448;-78
2022/07/09 10:28:19;;;;;;;7.82;1.48;;;;;;;;;;5052320;28;20049;-77
2022/07/09 10:30:45;;;;;;;6.00;1.30;;;;;;;;;;5052600;28;20124;-80
2022/07/09 10:33:12;;;;;;;3.78;1.08;;;;;;;;;;5036037;28;20170;-79
2022/07/09 10:35:42;;;;;;;8.02;1.70;;;;;;;;;;5054939;28;20044;-78
2022/07/09 10:38:08;;;;;;;9.20;1.57;;;;;;;;;;5053743;28;20055;-80
2022/07/09 10:40:38;;;;;;;10.23;1.90;;;;;;;;;;5054989;28;20124;-77
2022/07/09 10:43:04;;;;;;;6.03;1.50;;;;;;;;;;5049392;28;20120;-80
2022/07/09 10:46:00;;;;;;;7.50;1.27;;;;;;;;;;5049450;28;20049;-78
2022/07/09 10:48:32;;;;;;;7.18;1.30;;;;;;;;;;5034682;28;20127;-79
2022/07/09 10:50:58;;;;;;;6.72;1.40;;;;;;;;;;5052721;28;20128;-78
2022/07/09 10:53:29;;;;;;;7.30;1.33;;;;;;;;;;5032426;28;20194;-78
2022/07/09 10:55:55;;;;;;;6.63;1.30;;;;;;;;;;5052850;28;20041;-80
2022/07/09 10:58:22;;;;;;;6.65;1.30;;;;;;;;;;5038226;28;20037;-78
2022/07/09 11:00:57;;;;;;;6.00;1.52;;;;;;;;;;5049402;28;20049;-78
2022/07/09 11:03:27;;;;;;;7.05;1.60;;;;;;;;;;5035968;28;20483;-80
2022/07/09 11:05:53;;;;;;;6.75;1.40;;;;;;;;;;5048222;28;20085;-78
2022/07/09 11:08:19;;;;;;;5.85;1.30;;;;;;;;;;5052609;28;20052;-78
2022/07/09 11:10:45;;;;;;;5.93;1.20;;;;;;;;;;5051453;28;20044;-79
2022/07/09 11:13:11;;;;;;;5.97;1.35;;;;;;;;;;5050590;28;20068;-80
2022/07/09 11:15:38;;;;;;;8.85;1.50;;;;;;;;;;5053126;28;20037;-76
2022/07/09 11:18:06;;;;;;;6.20;1.40;;;;;;;;;;5052987;28;20049;-75
2022/07/09 11:20:33;;;;;;;7.45;1.35;;;;;;;;;;5050642;28;20041;-78
2022/07/09 11:23:00;;;;;;;8.90;1.35;;;;;;;;;;5050773;28;20033;-76
2022/07/09 11:25:27;;;;;;;4.70;1.23;;;;;;;;;;5051801;28;20067;-76
2022/07/09 11:27:54;;;;;;;6.93;1.45;;;;;;;;;;5050351;28;20079;-76
2022/07/09 11:30:20;;;;;;;10.05;1.42;;;;;;;;;;5052861;28;20045;-76
2022/07/09 11:32:46;;;;;;;11.02;1.83;;;;;;;;;;5050849;28;20047;-76
2022/07/09 11:35:13;;;;;;;9.82;1.90;;;;;;;;;;5052172;28;20051;-76
2022/07/09 11:37:45;;;;;;;7.85;1.90;;;;;;;;;;5050152;28;20052;-77
2022/07/09 11:40:16;;;;;;;6.05;1.50;;;;;;;;;;5040270;28;20103;-76
2022/07/09 11:42:42;;;;;;;7.40;1.42;;;;;;;;;;5048370;28;20048;-76
2022/07/09 11:45:09;;;;;;;7.80;1.50;;;;;;;;;;5052049;28;20049;-76
2022/07/09 11:47:37;;;;;;;6.05;1.30;;;;;;;;;;5051453;28;20060;-76
2022/07/09 11:50:07;;;;;;;8.05;2.03;;;;;;;;;;5039292;28;20049;-76
2022/07/09 11:52:33;;;;;;;8.18;1.92;;;;;;;;;;5024146;28;20399;-75
2022/07/09 11:55:07;;;;;;;9.07;1.42;;;;;;;;;;5039077;28;20430;-78
2022/07/09 11:57:37;;;;;;;8.45;1.80;;;;;;;;;;5044692;28;20412;-76
2022/07/09 12:00:04;;;;;;;8.03;1.83;;;;;;;;;;5040822;28;20403;-76
2022/07/09 12:02:32;;;;;;;9.65;1.83;;;;;;;;;;5044898;28;20502;-75
2022/07/09 12:05:03;;;;;;;11.38;2.00;;;;;;;;;;5042388;28;20044;-76
2022/07/09 12:07:29;;;;;;;9.20;1.75;;;;;;;;;;5041772;28;20046;-75
2022/07/09 12:10:00;;;;;;;8.93;1.85;;;;;;;;;;5024861;28;20042;-75
2022/07/09 12:12:26;;;;;;;11.50;1.80;;;;;;;;;;5045537;28;20402;-76
2022/07/09 12:14:52;;;;;;;13.43;2.22;;;;;;;;;;5046846;28;20682;-76
2022/07/09 12:17:19;;;;;;;7.75;1.40;;;;;;;;;;5040651;28;20086;-77
2022/07/09 12:19:45;;;;;;;11.20;2.47;;;;;;;;;;5041314;28;20041;-75
2022/07/09 12:22:11;;;;;;;7.80;1.65;;;;;;;;;;5041996;28;20049;-75
2022/07/09 12:24:38;;;;;;;10.13;1.98;;;;;;;;;;5041237;28;20049;-77
2022/07/09 12:27:04;;;;;;;8.75;1.60;;;;;;;;;;5044093;28;20051;-77
2022/07/09 12:29:30;;;;;;;9.32;1.67;;;;;;;;;;5022491;28;20049;-75
2022/07/09 12:31:56;;;;;;;7.97;1.70;;;;;;;;;;5025366;28;20037;-77
2022/07/09 12:34:23;;;;;;;6.00;1.50;;;;;;;;;;5041428;28;20052;-75
2022/07/09 12:36:49;;;;;;;10.40;1.88;;;;;;;;;;5043715;28;20053;-76
2022/07/09 12:39:15;;;;;;;8.50;1.63;;;;;;;;;;5042821;28;20387;-76
2022/07/09 12:41:41;;;;;;;9.23;2.10;;;;;;;;;;5023086;28;20045;-76
2022/07/09 12:44:07;;;;;;;6.82;1.17;;;;;;;;;;5022888;28;20408;-75
2022/07/09 12:46:33;;;;;;;7.93;1.30;;;;;;;;;;5041048;28;20037;-76
2022/07/09 12:49:01;;;;;;;7.43;1.27;;;;;;;;;;5044320;28;20495;-75
2022/07/09 12:51:27;;;;;;;7.97;1.10;;;;;;;;;;5041552;28;20143;-77
2022/07/09 12:53:53;;;;;;;6.18;0.90;;;;;;;;;;5038110;28;20077;-76
2022/07/09 12:56:19;;;;;;;4.82;1.00;;;;;;;;;;5039210;28;20042;-75
2022/07/09 12:58:45;;;;;;;5.43;1.05;;;;;;;;;;5041874;28;20037;-75
2022/07/09 13:01:11;;;;;;;7.07;1.55;;;;;;;;;;5042941;28;20041;-76
2022/07/09 13:03:37;;;;;;;9.02;1.35;;;;;;;;;;5026871;28;20116;-76
2022/07/09 13:06:04;;;;;;;5.43;1.00;;;;;;;;;;5043481;28;20037;-78
2022/07/09 13:08:30;;;;;;;6.68;1.30;;;;;;;;;;5043971;28;20052;-77
2022/07/09 13:10:56;;;;;;;4.80;0.93;;;;;;;;;;5044179;28;20051;-75
2022/07/09 13:13:22;;;;;;;7.88;1.20;;;;;;;;;;5048566;28;20060;-75
2022/07/09 13:15:48;;;;;;;8.52;1.40;;;;;;;;;;5050492;28;20076;-76
2022/07/09 13:18:15;;;;;;;7.43;1.25;;;;;;;;;;5050876;28;20044;-76
2022/07/09 13:20:42;;;;;;;7.40;1.30;;;;;;;;;;5048431;28;20060;-75
2022/07/09 13:23:08;;;;;;;7.22;0.98;;;;;;;;;;5051770;28;20076;-74
2022/07/09 13:25:34;;;;;;;6.75;1.20;;;;;;;;;;5052604;28;20041;-75
2022/07/09 13:28:00;;;;;;;5.13;1.30;;;;;;;;;;5055469;28;20083;-75
2022/07/09 13:30:26;;;;;;;6.47;1.00;;;;;;;;;;5053895;28;20422;-74
2022/07/09 13:32:52;;;;;;;7.10;1.15;;;;;;;;;;5055238;28;20049;-75
2022/07/09 13:35:19;;;;;;;8.13;1.38;;;;;;;;;;5055942;28;20118;-75
2022/07/09 13:37:45;;;;;;;6.22;1.20;;;;;;;;;;5038171;28;20076;-76
2022/07/09 13:40:11;;;;;;;7.47;1.42;;;;;;;;;;5055662;28;20103;-75
2022/07/09 13:42:37;;;;;;;7.53;1.42;;;;;;;;;;5055851;28;20045;-75
2022/07/09 13:45:04;;;;;;;7.93;1.40;;;;;;;;;;5051179;28;20056;-75
2022/07/09 13:47:30;;;;;;;7.38;1.20;;;;;;;;;;5055497;28;20447;-75
2022/07/09 13:49:56;;;;;;;7.85;1.17;;;;;;;;;;5055221;28;20041;-75
2022/07/09 13:52:22;;;;;;;5.55;0.90;;;;;;;;;;5052535;28;20483;-74
2022/07/09 13:54:48;;;;;;;5.22;1.10;;;;;;;;;;5051223;28;20431;-75
2022/07/09 13:57:14;;;;;;;6.70;1.30;;;;;;;;;;5049951;28;20044;-75
2022/07/09 13:59:40;;;;;;;7.80;1.45;;;;;;;;;;5045743;28;20056;-75
2022/07/09 14:02:06;;;;;;;6.50;1.23;;;;;;;;;;5022278;28;20037;-75
2022/07/09 14:04:32;;;;;;;5.45;1.15;;;;;;;;;;5045489;28;20446;-75
2022/07/09 14:06:58;;;;;;;6.90;1.30;;;;;;;;;;5044300;28;20095;-75
2022/07/09 14:09:24;;;;;;;8.90;1.20;;;;;;;;;;5040949;28;20064;-75
2022/07/09 14:11:50;;;;;;;4.13;1.00;;;;;;;;;;5046702;28;20463;-74
2022/07/09 14:14:16;;;;;;;7.82;1.17;;;;;;;;;;5044812;28;20045;-74
2022/07/09 14:16:42;;;;;;;7.93;1.30;;;;;;;;;;5040859;28;20038;-75
2022/07/09 14:19:08;;;;;;;8.27;1.40;;;;;;;;;;5046841;28;20045;-75
2022/07/09 14:21:34;;;;;;;5.65;0.95;;;;;;;;;;5044607;28;20119;-74
2022/07/09 14:24:00;;;;;;;5.85;1.15;;;;;;;;;;5044627;28;20483;-74
2022/07/09 14:26:26;;;;;;;5.72;1.13;;;;;;;;;;5046399;28;20034;-74
2022/07/09 14:28:52;;;;;;;7.40;1.00;;;;;;;;;;5045899;28;20045;-73
2022/07/09 14:31:18;;;;;;;5.78;1.25;;;;;;;;;;5045375;28;20499;-74